createdAt,value
2017-07-03T00:02:22.701Z,3.20
2017-07-03T00:04:50.198Z,3.15
2017-07-03T00:07:18.400Z,2.95
2017-07-03T00:09:45.842Z,4.05
2017-07-03T00:12:13.314Z,3.00
2017-07-03T00:14:40.792Z,3.10
2017-07-03T00:17:08.243Z,3.30
2017-07-03T00:19:35.722Z,3.10
2017-07-03T00:22:03.196Z,3.03
2017-07-03T00:24:30.634Z,3.30
2017-07-03T00:26:58.155Z,2.97
2017-07-03T00:29:25.590Z,3.00
2017-07-03T00:31:53.049Z,3.37
2017-07-03T00:34:21.254Z,3.30
2017-07-03T00:36:48.739Z,3.17
2017-07-03T00:39:16.287Z,3.50
2017-07-03T00:41:43.757Z,3.15
2017-07-03T00:44:11.214Z,3.20
2017-07-03T00:46:38.703Z,3.67
2017-07-03T00:49:06.270Z,3.00
2017-07-03T00:51:33.783Z,3.70
2017-07-03T00:54:01.434Z,4.55
2017-07-03T00:56:28.867Z,3.37
2017-07-03T00:58:56.369Z,3.17
2017-07-03T01:01:23.815Z,3.67
2017-07-03T01:03:51.280Z,3.30
2017-07-03T01:06:18.851Z,3.70
2017-07-03T01:08:46.270Z,4.15
2017-07-03T01:11:13.743Z,4.45
2017-07-03T01:13:41.293Z,4.20
2017-07-03T01:16:08.771Z,4.12
2017-07-03T01:18:36.211Z,3.65
2017-07-03T01:21:03.655Z,4.00
2017-07-03T01:23:31.097Z,3.83
2017-07-03T01:25:58.542Z,5.20
2017-07-03T01:28:26.068Z,5.07
2017-07-03T01:30:54.330Z,4.27
2017-07-03T01:33:21.885Z,4.60
2017-07-03T01:35:49.359Z,4.62
2017-07-03T01:38:17.594Z,4.00
2017-07-03T01:40:45.060Z,3.90
2017-07-03T01:43:12.492Z,4.10
2017-07-03T01:45:39.962Z,4.28
2017-07-03T01:48:07.415Z,4.87
2017-07-03T01:50:34.907Z,4.93
2017-07-03T01:53:02.432Z,3.40
2017-07-03T01:55:29.866Z,4.07
2017-07-03T01:57:57.315Z,3.92
2017-07-03T02:00:24.811Z,4.07
2017-07-03T02:02:52.267Z,3.30
2017-07-03T02:05:19.708Z,4.10
2017-07-03T02:07:47.175Z,4.10
2017-07-03T02:10:14.660Z,4.10
2017-07-03T02:12:42.222Z,3.72
2017-07-03T02:15:09.658Z,3.83
2017-07-03T02:17:37.094Z,4.05
2017-07-03T02:20:04.534Z,3.65
2017-07-03T02:22:32.042Z,4.00
2017-07-03T02:24:59.524Z,4.10
2017-07-03T02:27:27.714Z,3.90
2017-07-03T02:29:55.237Z,3.80
2017-07-03T02:32:23.487Z,3.62
2017-07-03T02:34:51.043Z,4.28
2017-07-03T02:37:18.480Z,4.67
2017-07-03T02:39:45.973Z,4.37
2017-07-03T02:42:13.513Z,4.07
2017-07-03T02:44:40.959Z,4.05
2017-07-03T02:47:08.414Z,4.00
2017-07-03T02:49:35.895Z,4.20
2017-07-03T02:52:03.347Z,4.18
2017-07-03T02:54:30.786Z,4.70
2017-07-03T02:56:58.221Z,4.43
2017-07-03T02:59:25.712Z,4.55
2017-07-03T03:01:53.187Z,4.47
2017-07-03T03:04:20.716Z,4.00
2017-07-03T03:06:48.193Z,4.15
2017-07-03T03:09:15.832Z,4.05
2017-07-03T03:11:43.293Z,3.50
2017-07-03T03:14:10.733Z,4.00
2017-07-03T03:16:38.286Z,3.62
2017-07-03T03:19:05.721Z,4.17
2017-07-03T03:21:33.241Z,3.90
2017-07-03T03:24:00.663Z,3.72
2017-07-03T03:26:28.099Z,4.47
2017-07-03T03:28:55.578Z,4.00
2017-07-03T03:31:23.046Z,3.60
2017-07-03T03:33:50.478Z,4.00
2017-07-03T03:36:17.913Z,3.50
2017-07-03T03:38:45.353Z,4.35
2017-07-03T03:41:13.552Z,3.50
2017-07-03T03:43:41.038Z,3.42
2017-07-03T03:46:08.515Z,3.60
2017-07-03T03:48:36.074Z,3.72
2017-07-03T03:51:03.511Z,4.20
2017-07-03T03:53:30.939Z,3.53
2017-07-03T03:55:58.438Z,3.08
2017-07-03T03:58:25.876Z,3.85
2017-07-03T04:00:53.403Z,3.72
2017-07-03T04:03:20.842Z,4.00
2017-07-03T04:05:48.291Z,3.80
2017-07-03T04:08:16.519Z,3.20
2017-07-03T04:10:43.974Z,3.80
2017-07-03T04:13:11.468Z,4.03
2017-07-03T04:15:38.910Z,3.40
2017-07-03T04:18:06.466Z,3.85
2017-07-03T04:20:34.002Z,3.55
2017-07-03T04:23:01.458Z,3.50
2017-07-03T04:25:28.916Z,3.50
2017-07-03T04:27:56.383Z,3.30
2017-07-03T04:30:23.819Z,3.53
2017-07-03T04:32:51.303Z,3.53
2017-07-03T04:35:18.880Z,3.53
2017-07-03T04:37:47.092Z,3.58
2017-07-03T04:40:14.585Z,3.80
2017-07-03T04:42:42.014Z,3.90
2017-07-03T04:45:09.631Z,3.60
2017-07-03T04:47:37.069Z,4.75
2017-07-03T04:50:04.618Z,3.30
2017-07-03T04:52:32.181Z,3.75
2017-07-03T04:54:59.606Z,3.73
2017-07-03T04:57:27.091Z,3.97
2017-07-03T04:59:54.522Z,4.65
2017-07-03T05:02:22.038Z,3.80
2017-07-03T05:04:50.264Z,3.58
2017-07-03T05:07:17.754Z,4.28
2017-07-03T05:09:45.286Z,3.80
2017-07-03T05:12:12.831Z,3.70
2017-07-03T05:14:40.291Z,3.10
2017-07-03T05:17:07.753Z,3.47
2017-07-03T05:19:35.312Z,4.03
2017-07-03T05:22:02.762Z,3.22
2017-07-03T05:24:30.258Z,3.80
2017-07-03T05:26:57.908Z,3.70
2017-07-03T05:29:25.358Z,3.40
2017-07-03T05:31:52.832Z,3.55
2017-07-03T05:34:20.427Z,3.50
2017-07-03T05:36:47.952Z,3.10
2017-07-03T05:39:15.430Z,3.67
2017-07-03T05:41:42.886Z,3.30
2017-07-03T05:44:16.010Z,3.60
2017-07-03T05:46:44.247Z,3.70
2017-07-03T05:49:11.702Z,3.17
2017-07-03T05:51:39.167Z,4.12
2017-07-03T05:54:06.645Z,3.62
2017-07-03T05:56:34.191Z,3.55
2017-07-03T05:59:01.615Z,3.20
2017-07-03T06:01:29.064Z,3.10
2017-07-03T06:03:56.508Z,3.20
2017-07-03T06:06:24.014Z,2.80
2017-07-03T06:08:51.471Z,2.70
2017-07-03T06:11:18.943Z,2.55
2017-07-03T06:13:47.210Z,2.40
2017-07-03T06:16:14.775Z,2.60
2017-07-03T06:18:42.346Z,2.83
2017-07-03T06:21:09.914Z,2.40
2017-07-03T06:23:38.163Z,2.70
2017-07-03T06:26:05.703Z,2.70
2017-07-03T06:28:33.152Z,2.67
2017-07-03T06:31:00.626Z,2.95
2017-07-03T06:33:28.098Z,3.00
2017-07-03T06:35:55.636Z,2.70
2017-07-03T06:38:23.088Z,2.92
2017-07-03T06:40:50.578Z,2.90
2017-07-03T06:43:19.523Z,2.35
2017-07-03T06:45:47.263Z,2.42
2017-07-03T06:48:14.883Z,2.90
2017-07-03T06:50:43.138Z,2.70
2017-07-03T06:53:10.634Z,3.20
2017-07-03T06:55:38.110Z,2.58
2017-07-03T06:58:05.557Z,2.45
2017-07-03T07:00:32.995Z,2.90
2017-07-03T07:03:00.550Z,3.10
2017-07-03T07:05:28.759Z,2.30
2017-07-03T07:07:56.247Z,2.53
2017-07-03T07:10:23.698Z,2.40
2017-07-03T07:12:51.156Z,2.00
2017-07-03T07:15:18.643Z,2.78
2017-07-03T07:17:46.172Z,2.10
2017-07-03T07:20:13.653Z,2.70
2017-07-03T07:22:41.099Z,2.20
2017-07-03T07:25:08.547Z,2.47
2017-07-03T07:27:35.999Z,2.13
2017-07-03T07:30:03.840Z,2.30
2017-07-03T07:32:31.299Z,2.10
2017-07-03T07:34:58.783Z,2.55
2017-07-03T07:37:26.211Z,2.17
2017-07-03T07:39:53.683Z,2.50
2017-07-03T07:42:21.209Z,2.30
2017-07-03T07:44:48.751Z,2.60
2017-07-03T07:47:16.190Z,2.20
2017-07-03T07:49:44.443Z,2.70
2017-07-03T07:52:11.887Z,2.00
2017-07-03T07:54:39.339Z,2.00
2017-07-03T07:57:06.817Z,2.23
2017-07-03T07:59:34.438Z,1.92
2017-07-03T08:02:01.863Z,2.03
2017-07-03T08:04:30.106Z,2.00
2017-07-03T08:06:57.627Z,2.40
2017-07-03T08:09:25.061Z,2.40
2017-07-03T08:11:52.539Z,2.40
2017-07-03T08:14:19.967Z,1.90
2017-07-03T08:16:47.492Z,2.08
2017-07-03T08:19:14.985Z,1.70
2017-07-03T08:21:42.531Z,2.00
2017-07-03T08:24:10.792Z,1.97
2017-07-03T08:26:38.995Z,1.85
2017-07-03T08:29:06.455Z,2.20
2017-07-03T08:31:33.924Z,2.00
2017-07-03T08:34:01.388Z,2.20
2017-07-03T08:36:28.946Z,1.87
2017-07-03T08:38:56.400Z,2.20
2017-07-03T08:41:23.871Z,2.10
2017-07-03T08:43:51.289Z,2.00
2017-07-03T08:46:18.730Z,1.87
2017-07-03T08:48:46.959Z,2.20
2017-07-03T08:51:14.414Z,1.80
2017-07-03T08:53:41.851Z,2.25
2017-07-03T08:56:09.335Z,2.55
2017-07-03T08:58:36.764Z,2.60
2017-07-03T09:01:04.306Z,1.83
2017-07-03T09:03:31.831Z,1.80
2017-07-03T09:06:00.165Z,1.90
2017-07-03T09:08:27.642Z,1.95
2017-07-03T09:10:55.216Z,1.83
2017-07-03T09:13:22.709Z,2.20
2017-07-03T09:15:50.135Z,2.00
2017-07-03T09:18:18.363Z,1.83
2017-07-03T09:20:45.803Z,1.80
2017-07-03T09:23:13.289Z,1.80
2017-07-03T09:25:40.758Z,2.03
2017-07-03T09:28:08.270Z,1.80
2017-07-03T09:30:35.738Z,2.20
2017-07-03T09:33:03.227Z,2.47
2017-07-03T09:35:30.696Z,1.98
2017-07-03T09:37:58.146Z,2.50
2017-07-03T09:40:25.604Z,2.70
2017-07-03T09:42:53.123Z,2.05
2017-07-03T09:45:20.622Z,2.30
2017-07-03T09:47:48.070Z,2.00
2017-07-03T09:50:15.543Z,2.17
2017-07-03T09:52:42.963Z,2.50
2017-07-03T09:55:10.447Z,2.10
2017-07-03T09:57:37.894Z,2.20
2017-07-03T10:00:05.388Z,2.28
2017-07-03T10:02:32.846Z,1.90
2017-07-03T10:05:00.395Z,2.10
2017-07-03T10:07:28.744Z,1.95
2017-07-03T10:09:56.175Z,2.33
2017-07-03T10:12:23.783Z,2.25
2017-07-03T10:14:52.022Z,1.80
2017-07-03T10:17:19.485Z,2.10
2017-07-03T10:19:46.947Z,1.60
2017-07-03T10:22:14.522Z,2.30
2017-07-03T10:24:41.989Z,1.90
2017-07-03T10:27:10.204Z,2.17
2017-07-03T10:29:37.654Z,2.30
2017-07-03T10:32:05.112Z,2.10
2017-07-03T10:34:32.598Z,2.40
2017-07-03T10:37:00.027Z,2.30
2017-07-03T10:39:27.565Z,2.53
2017-07-03T10:41:55.082Z,2.63
2017-07-03T10:44:22.629Z,2.90
2017-07-03T10:46:50.074Z,2.37
2017-07-03T10:49:17.640Z,2.30
2017-07-03T10:51:45.115Z,2.12
2017-07-03T10:54:12.663Z,2.50
2017-07-03T10:56:40.120Z,2.70
2017-07-03T10:59:07.594Z,2.53
2017-07-03T11:01:35.118Z,2.30
2017-07-03T11:04:02.603Z,2.42
2017-07-03T11:06:30.054Z,2.50
2017-07-03T11:08:57.517Z,2.55
2017-07-03T11:11:25.143Z,2.70
2017-07-03T11:13:52.576Z,2.50
2017-07-03T11:16:20.095Z,2.53
2017-07-03T11:18:47.730Z,2.28
2017-07-03T11:21:15.249Z,2.60
2017-07-03T11:23:42.738Z,2.80
2017-07-03T11:26:10.196Z,2.60
2017-07-03T11:28:37.667Z,2.70
2017-07-03T11:31:05.159Z,2.40
2017-07-03T11:33:33.428Z,3.00
2017-07-03T11:36:02.574Z,2.90
2017-07-03T11:38:30.052Z,2.30
2017-07-03T11:40:57.535Z,2.58
2017-07-03T11:43:25.766Z,2.60
2017-07-03T11:45:53.234Z,2.30
2017-07-03T11:48:20.675Z,2.10
2017-07-03T11:50:48.129Z,2.60
2017-07-03T11:53:15.673Z,2.60
2017-07-03T11:55:43.131Z,2.62
2017-07-03T11:58:10.582Z,2.35
2017-07-03T12:00:38.058Z,2.60
2017-07-03T12:03:05.497Z,2.50
2017-07-03T12:05:32.942Z,2.60
2017-07-03T12:08:00.456Z,2.80
2017-07-03T12:10:27.927Z,2.40
2017-07-03T12:12:55.455Z,2.85
2017-07-03T12:15:22.985Z,3.30
2017-07-03T12:17:50.486Z,2.90
2017-07-03T12:20:17.943Z,2.65
2017-07-03T12:22:45.376Z,2.73
2017-07-03T12:25:12.863Z,2.80
2017-07-03T12:27:40.293Z,2.60
2017-07-03T12:30:07.740Z,2.65
2017-07-03T12:32:35.194Z,2.70
2017-07-03T12:35:02.633Z,2.65
2017-07-03T12:37:30.083Z,3.00
2017-07-03T12:39:57.545Z,2.55
2017-07-03T12:42:24.990Z,2.50
2017-07-03T12:44:52.448Z,2.72
2017-07-03T12:47:20.061Z,2.60
2017-07-03T12:49:47.485Z,2.50
2017-07-03T12:52:14.955Z,2.83
2017-07-03T12:54:42.390Z,2.50
2017-07-03T12:57:09.842Z,2.97
2017-07-03T12:59:37.310Z,2.10
2017-07-03T13:02:04.763Z,2.70
2017-07-03T13:04:32.227Z,2.83
2017-07-03T13:06:59.663Z,2.50
2017-07-03T13:09:27.158Z,3.10
2017-07-03T13:11:54.578Z,3.03
2017-07-03T13:14:22.063Z,3.15
2017-07-03T13:16:49.499Z,2.60
2017-07-03T13:19:17.043Z,2.53
2017-07-03T13:21:44.546Z,2.75
2017-07-03T13:24:12.090Z,2.62
2017-07-03T13:26:39.626Z,2.33
2017-07-03T13:29:07.171Z,2.80
2017-07-03T13:31:34.667Z,2.28
2017-07-03T13:34:02.119Z,2.80
2017-07-03T13:36:29.587Z,2.58
2017-07-03T13:38:57.047Z,3.20
2017-07-03T13:41:24.595Z,2.50
2017-07-03T13:43:52.059Z,2.80
2017-07-03T13:46:19.503Z,2.80
2017-07-03T13:48:46.961Z,2.70
2017-07-03T13:51:14.448Z,3.03
2017-07-03T13:53:41.902Z,3.42
2017-07-03T13:56:10.123Z,2.97
2017-07-03T13:58:37.680Z,2.87
2017-07-03T14:01:05.153Z,2.70
2017-07-03T14:03:32.831Z,3.30
2017-07-03T14:06:00.420Z,2.95
2017-07-03T14:08:27.872Z,2.83
2017-07-03T14:10:55.400Z,2.80
2017-07-03T14:13:22.831Z,2.60
2017-07-03T14:15:50.319Z,2.60
2017-07-03T14:18:17.793Z,2.62
2017-07-03T14:20:45.335Z,2.80
2017-07-03T14:23:12.958Z,2.92
2017-07-03T14:25:40.644Z,3.20
2017-07-03T14:28:08.098Z,3.30
2017-07-03T14:30:35.527Z,2.80
2017-07-03T14:33:02.991Z,3.00
2017-07-03T14:35:30.425Z,2.70
2017-07-03T14:37:57.894Z,2.90
2017-07-03T14:40:25.442Z,3.00
2017-07-03T14:42:52.906Z,3.13
2017-07-03T14:45:20.455Z,2.90
2017-07-03T14:47:47.942Z,3.10
2017-07-03T14:50:16.164Z,3.37
2017-07-03T14:52:43.607Z,2.95
2017-07-03T14:55:11.083Z,2.60
2017-07-03T14:57:38.568Z,2.60
2017-07-03T15:00:06.835Z,2.90
2017-07-03T15:02:34.410Z,3.00
2017-07-03T15:05:01.891Z,2.67
2017-07-03T15:09:56.331Z,2.70
2017-07-03T15:12:23.902Z,3.30
2017-07-03T15:14:51.464Z,2.70
2017-07-03T15:17:18.925Z,3.10
2017-07-03T15:19:46.373Z,2.67
2017-07-03T15:22:13.802Z,3.60
2017-07-03T15:24:41.343Z,2.70
2017-07-03T15:27:08.856Z,3.00
2017-07-03T15:29:36.311Z,2.85
2017-07-03T15:32:04.544Z,2.95
2017-07-03T15:34:31.982Z,2.90
2017-07-03T15:36:59.419Z,3.10
2017-07-03T15:39:26.928Z,3.00
2017-07-03T15:41:54.419Z,3.20
2017-07-03T15:44:22.628Z,3.75
2017-07-03T15:46:50.085Z,3.70
2017-07-03T15:49:17.516Z,3.92
2017-07-03T15:51:45.076Z,4.30
2017-07-03T15:54:13.403Z,4.90
2017-07-03T15:56:40.864Z,4.35
2017-07-03T15:59:08.411Z,4.60
2017-07-03T16:01:35.971Z,4.12
2017-07-03T16:04:03.462Z,4.00
2017-07-03T16:06:30.895Z,4.30
2017-07-03T16:08:58.628Z,3.50
2017-07-03T16:11:26.071Z,3.80
2017-07-03T16:13:53.637Z,4.10
2017-07-03T16:16:21.232Z,3.50
2017-07-03T16:18:48.693Z,4.05
2017-07-03T16:21:16.154Z,3.90
2017-07-03T16:23:43.654Z,4.30
2017-07-03T16:26:11.133Z,3.90
2017-07-03T16:28:38.747Z,3.80
2017-07-03T16:31:06.993Z,4.60
2017-07-03T16:33:34.422Z,3.80
2017-07-03T16:36:01.910Z,4.20
2017-07-03T16:38:29.356Z,3.90
2017-07-03T16:40:56.820Z,3.60
2017-07-03T16:43:24.267Z,4.15
2017-07-03T16:45:51.726Z,3.50
2017-07-03T16:48:19.208Z,4.45
2017-07-03T16:50:46.715Z,4.30
2017-07-03T16:53:14.159Z,4.05
2017-07-03T16:55:41.655Z,3.80
2017-07-03T16:58:09.135Z,4.10
2017-07-03T17:00:36.715Z,4.85
2017-07-03T17:03:04.174Z,4.80
2017-07-03T17:05:31.635Z,5.87
2017-07-03T17:07:59.094Z,4.15
2017-07-03T17:10:26.556Z,5.20
2017-07-03T17:12:53.999Z,4.57
2017-07-03T17:15:21.461Z,4.30
2017-07-03T17:17:48.911Z,5.50
2017-07-03T17:20:16.366Z,6.70
2017-07-03T17:22:44.608Z,7.80
2017-07-03T17:25:12.073Z,8.10
2017-07-03T17:27:39.559Z,9.00
2017-07-03T17:30:06.990Z,9.70
2017-07-03T17:32:35.262Z,10.20
2017-07-03T17:35:03.479Z,10.30
2017-07-03T17:37:30.997Z,10.68
2017-07-03T17:39:59.204Z,10.20
2017-07-03T17:42:27.185Z,10.05
2017-07-03T17:44:55.472Z,9.95
2017-07-03T17:47:22.954Z,10.20
2017-07-03T17:49:50.427Z,10.20
2017-07-03T17:52:18.784Z,9.27
2017-07-03T17:54:46.265Z,8.73
2017-07-03T17:57:13.707Z,8.73
2017-07-03T17:59:41.311Z,7.95
2017-07-03T18:02:08.812Z,7.05
2017-07-03T18:04:36.244Z,6.53
2017-07-03T18:07:03.799Z,5.90
2017-07-03T18:09:31.287Z,6.35
2017-07-03T18:11:58.710Z,5.47
2017-07-03T18:14:26.153Z,5.43
2017-07-03T18:16:53.679Z,6.15
2017-07-03T18:19:21.924Z,6.25
2017-07-03T18:21:49.406Z,5.70
2017-07-03T18:24:16.873Z,5.10
2017-07-03T18:26:45.115Z,4.80
2017-07-03T18:29:12.590Z,4.87
2017-07-03T18:31:40.100Z,5.00
2017-07-03T18:34:07.544Z,5.10
2017-07-03T18:36:35.163Z,5.10
2017-07-03T18:39:02.815Z,5.50
2017-07-03T18:41:30.377Z,5.50
2017-07-03T18:43:57.836Z,5.15
2017-07-03T18:46:25.266Z,5.75
2017-07-03T18:48:52.738Z,5.07
2017-07-03T18:51:20.283Z,4.65
2017-07-03T18:53:47.732Z,4.90
2017-07-03T18:56:15.194Z,5.43
2017-07-03T18:58:42.683Z,5.62
2017-07-03T19:01:10.182Z,5.05
2017-07-03T19:03:37.652Z,5.70
2017-07-03T19:06:05.109Z,5.40
2017-07-03T19:08:32.573Z,5.15
2017-07-03T19:11:00.079Z,6.03
2017-07-03T19:13:27.530Z,5.72
2017-07-03T19:15:54.954Z,5.90
2017-07-03T19:18:22.543Z,6.20
2017-07-03T19:20:50.092Z,6.18
2017-07-03T19:23:18.379Z,5.95
2017-07-03T19:25:45.815Z,5.90
2017-07-03T19:28:14.065Z,5.60
2017-07-03T19:30:41.531Z,6.53
2017-07-03T19:33:09.065Z,6.47
2017-07-03T19:35:36.556Z,6.60
2017-07-03T19:38:04.000Z,7.20
2017-07-03T19:40:31.440Z,5.90
2017-07-03T19:42:58.968Z,5.82
2017-07-03T19:45:26.448Z,6.40
2017-07-03T19:47:53.937Z,6.10
2017-07-03T19:50:22.135Z,5.87
2017-07-03T19:52:49.652Z,5.20
2017-07-03T19:55:17.193Z,5.50
2017-07-03T19:57:44.651Z,5.70
2017-07-03T20:00:12.092Z,5.20
2017-07-03T20:02:39.625Z,5.87
2017-07-03T20:05:07.131Z,5.62
2017-07-03T20:07:34.681Z,5.60
2017-07-03T20:10:02.140Z,5.05
2017-07-03T20:12:30.803Z,5.28
2017-07-03T20:14:58.727Z,5.00
2017-07-03T20:17:27.457Z,5.00
2017-07-03T20:19:55.424Z,5.68
2017-07-03T20:22:23.396Z,5.45
2017-07-03T20:24:51.256Z,5.80
2017-07-03T20:27:18.767Z,5.18
2017-07-03T20:29:46.211Z,5.12
2017-07-03T20:32:13.778Z,5.60
2017-07-03T20:34:41.242Z,5.50
2017-07-03T20:37:09.502Z,5.55
2017-07-03T20:39:37.080Z,5.67
2017-07-03T20:42:05.259Z,5.30
2017-07-03T20:44:33.513Z,5.25
2017-07-03T20:47:00.942Z,4.78
2017-07-03T20:49:28.386Z,4.60
2017-07-03T20:51:55.863Z,4.80
2017-07-03T20:54:23.423Z,5.18
2017-07-03T20:56:50.883Z,5.57
2017-07-03T20:59:18.390Z,4.93
2017-07-03T21:01:46.607Z,5.37
2017-07-03T21:04:14.067Z,5.32
2017-07-03T21:06:41.507Z,5.62
2017-07-03T21:09:08.940Z,5.60
2017-07-03T21:11:36.419Z,5.70
2017-07-03T21:14:03.908Z,5.45
2017-07-03T21:16:31.449Z,5.77
2017-07-03T21:18:58.926Z,5.90
2017-07-03T21:21:26.480Z,5.68
2017-07-03T21:23:53.915Z,6.40
2017-07-03T21:26:21.380Z,6.15
2017-07-03T21:28:48.857Z,5.80
2017-07-03T21:31:17.121Z,6.37
2017-07-03T21:33:44.581Z,6.93
2017-07-03T21:36:12.802Z,6.47
2017-07-03T21:38:40.297Z,6.30
2017-07-03T21:41:07.763Z,6.60
2017-07-03T21:43:35.335Z,6.00
2017-07-03T21:46:03.606Z,5.72
2017-07-03T21:48:31.159Z,5.87
2017-07-03T21:50:58.599Z,6.75
2017-07-03T21:53:26.039Z,5.75
2017-07-03T21:55:53.498Z,6.35
2017-07-03T21:58:21.018Z,6.57
2017-07-03T22:00:49.273Z,6.72
2017-07-03T22:03:16.812Z,6.35
2017-07-03T22:05:44.371Z,6.03
2017-07-03T22:08:11.966Z,6.45
2017-07-03T22:10:39.441Z,6.03
2017-07-03T22:13:07.653Z,6.18
2017-07-03T22:15:35.162Z,5.90
2017-07-03T22:18:02.690Z,5.40
2017-07-03T22:20:30.163Z,5.90
2017-07-03T22:22:58.435Z,6.80
2017-07-03T22:25:26.667Z,6.05
2017-07-03T22:27:54.175Z,6.25
2017-07-03T22:30:21.693Z,6.70
2017-07-03T22:32:49.142Z,6.43
2017-07-03T22:35:16.618Z,6.32
2017-07-03T22:37:44.891Z,6.53
2017-07-03T22:40:12.443Z,7.50
2017-07-03T22:42:39.899Z,7.68
2017-07-03T22:45:07.369Z,7.70
2017-07-03T22:47:34.804Z,6.93
2017-07-03T22:50:02.249Z,7.00
2017-07-03T22:52:29.799Z,7.72
2017-07-03T22:54:57.284Z,7.43
2017-07-03T22:57:24.851Z,8.20
2017-07-03T22:59:52.302Z,8.27
2017-07-03T23:02:19.758Z,8.00
2017-07-03T23:04:47.301Z,8.50
2017-07-03T23:07:14.731Z,8.77
2017-07-03T23:09:42.231Z,8.13
2017-07-03T23:12:09.809Z,8.40
2017-07-03T23:14:38.038Z,9.25
2017-07-03T23:17:05.513Z,9.18
2017-07-03T23:19:32.969Z,8.80
2017-07-03T23:22:00.399Z,9.88
2017-07-03T23:24:27.887Z,9.27
2017-07-03T23:26:55.368Z,9.68
2017-07-03T23:29:23.572Z,9.93
2017-07-03T23:31:51.069Z,8.90
2017-07-03T23:34:18.531Z,9.40
2017-07-03T23:36:46.004Z,9.52
2017-07-03T23:39:13.424Z,8.75
2017-07-03T23:41:40.890Z,8.77
2017-07-03T23:44:08.336Z,8.30
2017-07-03T23:46:35.807Z,8.77
2017-07-03T23:49:03.242Z,8.02
2017-07-03T23:51:30.711Z,7.90
2017-07-03T23:53:58.185Z,8.70
2017-07-03T23:56:25.744Z,8.52
2017-07-03T23:58:53.360Z,7.80
